Strona główna
METAR-TAF:

METAR-TAF

Lotnisko :

Port lotniczy Malakka

Malakka, Malezja

Szerokość geograficzna: 02-16N, Długość geograficzna: 102-15E, wysokość: 11 m

Aktualna obserwacja pogody

Raport powstał 1 godzina i 4 minut temu, godzina 08:00 UTC
Wiatr 4 kt z kierunków zmiennych
Temperatura 33°C
Wilgotność 56%
Ciśnienie 1007 hPa
Widzialność 10 km lub więcej
Mało chmury na wysokości 2100 ft

METAR: WMKM 070800Z VRB04KT 9999 FEW021 33/23 Q1007

czas: 17:04 (09:04 UTC)

Prognoza

Raport powstał 4 godziny i 4 minut temu, godzina 05:00 UTC
Prognoza ważna od 07 godzina 06 UTC do 08 godzina 06 UTC
Wiatr 5 kt od południowo-południowy zachód
Widzialność 10 km lub więcej
Mało chmury na wysokości 2000 ft

TAF: WMKM 070500Z 0706/0806 21005KT 9999 FEW020

Obserwacja i prognoza pogody dla ponad 4000 lotnisk (raport METAR i TAF).

Dostępne stacje oznaczono żółtymi i czerwonymi punktami na mapie.

Najedź kursorem aby zobaczyć nazwę stacji.

Kliknij aby zobaczyć obserwacje i prognozy pogody.

Aby zmienić mapę: kliknij na zielony przycisk z czarnym krzyżykiem, aby powiększyć; na zielony przycisk z myślnikiem, aby pomniejszyć; na zielone strzałki, aby przejść do map sąsiednich.


METAR-TAF: